sensor_id;sensor_type;location;lat;lon;timestamp;P1;durP1;ratioP1;P2;durP2;ratioP2
52620;SDS011;38515;53.160;6.990;2024-02-14T00:02:11;1515.82;;;999.90;;
52620;SDS011;38515;53.160;6.990;2024-02-14T00:04:37;1999.90;;;999.90;;
52620;SDS011;38515;53.160;6.990;2024-02-14T00:07:04;1999.90;;;999.90;;
52620;SDS011;38515;53.160;6.990;2024-02-14T00:09:30;1999.90;;;999.90;;
52620;SDS011;38515;53.160;6.990;2024-02-14T00:11:56;1469.00;;;999.90;;
52620;SDS011;38515;53.160;6.990;2024-02-14T00:14:21;1999.90;;;999.90;;
52620;SDS011;38515;53.160;6.990;2024-02-14T00:16:47;1512.25;;;999.90;;
52620;SDS011;38515;53.160;6.990;2024-02-14T00:19:13;1999.90;;;999.90;;
52620;SDS011;38515;53.160;6.990;2024-02-14T00:21:39;1999.90;;;999.90;;
52620;SDS011;38515;53.160;6.990;2024-02-14T00:24:05;1999.90;;;999.90;;
52620;SDS011;38515;53.160;6.990;2024-02-14T00:26:31;1999.90;;;999.90;;
52620;SDS011;38515;53.160;6.990;2024-02-14T00:28:57;1564.47;;;999.90;;
52620;SDS011;38515;53.160;6.990;2024-02-14T00:31:22;1999.90;;;999.90;;
52620;SDS011;38515;53.160;6.990;2024-02-14T00:33:48;1999.90;;;999.90;;
52620;SDS011;38515;53.160;6.990;2024-02-14T00:36:14;1999.90;;;999.90;;
52620;SDS011;38515;53.160;6.990;2024-02-14T00:38:40;1999.90;;;999.90;;
52620;SDS011;38515;53.160;6.990;2024-02-14T00:41:06;1571.28;;;999.90;;
52620;SDS011;38515;53.160;6.990;2024-02-14T00:43:31;1999.90;;;999.90;;
52620;SDS011;38515;53.160;6.990;2024-02-14T00:45:57;1999.90;;;999.90;;
52620;SDS011;38515;53.160;6.990;2024-02-14T00:48:23;1999.90;;;999.90;;
52620;SDS011;38515;53.160;6.990;2024-02-14T00:50:48;1999.90;;;999.90;;
52620;SDS011;38515;53.160;6.990;2024-02-14T00:53:14;1481.38;;;999.90;;
52620;SDS011;38515;53.160;6.990;2024-02-14T00:55:40;1999.90;;;999.90;;
52620;SDS011;38515;53.160;6.990;2024-02-14T00:58:06;1999.90;;;999.90;;
52620;SDS011;38515;53.160;6.990;2024-02-14T01:00:32;1268.22;;;999.90;;
52620;SDS011;38515;53.160;6.990;2024-02-14T01:02:58;1999.90;;;999.90;;
52620;SDS011;38515;53.160;6.990;2024-02-14T01:05:24;1999.90;;;999.90;;
52620;SDS011;38515;53.160;6.990;2024-02-14T01:07:50;1999.90;;;999.90;;
52620;SDS011;38515;53.160;6.990;2024-02-14T01:10:16;1286.03;;;999.90;;
52620;SDS011;38515;53.160;6.990;2024-02-14T01:12:43;1412.38;;;999.90;;
52620;SDS011;38515;53.160;6.990;2024-02-14T01:15:09;1440.18;;;999.90;;
52620;SDS011;38515;53.160;6.990;2024-02-14T01:17:35;1999.90;;;999.90;;
52620;SDS011;38515;53.160;6.990;2024-02-14T01:20:02;1999.90;;;999.90;;
52620;SDS011;38515;53.160;6.990;2024-02-14T01:22:28;1999.90;;;999.90;;
52620;SDS011;38515;53.160;6.990;2024-02-14T01:24:54;1277.65;;;999.90;;
52620;SDS011;38515;53.160;6.990;2024-02-14T01:27:20;1999.38;;;999.90;;
52620;SDS011;38515;53.160;6.990;2024-02-14T01:29:47;1993.78;;;999.90;;
52620;SDS011;38515;53.160;6.990;2024-02-14T01:32:13;1958.28;;;999.90;;
52620;SDS011;38515;53.160;6.990;2024-02-14T01:34:39;1275.82;;;999.90;;
52620;SDS011;38515;53.160;6.990;2024-02-14T01:37:07;1960.05;;;999.90;;
52620;SDS011;38515;53.160;6.990;2024-02-14T01:39:35;1926.47;;;999.90;;
52620;SDS011;38515;53.160;6.990;2024-02-14T01:42:00;1268.70;;;999.90;;
52620;SDS011;38515;53.160;6.990;2024-02-14T01:44:26;1329.05;;;999.90;;
52620;SDS011;38515;53.160;6.990;2024-02-14T01:46:52;1999.90;;;999.90;;
52620;SDS011;38515;53.160;6.990;2024-02-14T01:49:18;1932.28;;;999.90;;
52620;SDS011;38515;53.160;6.990;2024-02-14T01:51:44;1159.65;;;999.90;;
52620;SDS011;38515;53.160;6.990;2024-02-14T01:54:11;1999.90;;;999.90;;
52620;SDS011;38515;53.160;6.990;2024-02-14T01:56:39;1995.93;;;999.90;;
52620;SDS011;38515;53.160;6.990;2024-02-14T01:59:05;1883.20;;;999.90;;
52620;SDS011;38515;53.160;6.990;2024-02-14T02:01:32;1870.75;;;999.90;;
52620;SDS011;38515;53.160;6.990;2024-02-14T02:03:58;1229.82;;;999.90;;
52620;SDS011;38515;53.160;6.990;2024-02-14T02:06:24;1891.65;;;999.90;;
52620;SDS011;38515;53.160;6.990;2024-02-14T02:08:51;1782.70;;;999.90;;
52620;SDS011;38515;53.160;6.990;2024-02-14T02:11:17;1792.18;;;999.90;;
52620;SDS011;38515;53.160;6.990;2024-02-14T02:13:43;1222.18;;;999.90;;
52620;SDS011;38515;53.160;6.990;2024-02-14T02:16:09;1836.80;;;999.90;;
52620;SDS011;38515;53.160;6.990;2024-02-14T02:18:35;1759.10;;;999.90;;
52620;SDS011;38515;53.160;6.990;2024-02-14T02:21:02;1180.35;;;999.90;;
52620;SDS011;38515;53.160;6.990;2024-02-14T02:23:32;1783.80;;;999.90;;
52620;SDS011;38515;53.160;6.990;2024-02-14T02:26:01;1803.32;;;999.90;;
52620;SDS011;38515;53.160;6.990;2024-02-14T02:28:27;1746.38;;;999.90;;
52620;SDS011;38515;53.160;6.990;2024-02-14T02:30:53;1136.57;;;999.90;;
52620;SDS011;38515;53.160;6.990;2024-02-14T02:33:21;1181.32;;;999.90;;
52620;SDS011;38515;53.160;6.990;2024-02-14T02:35:51;1123.07;;;999.90;;
52620;SDS011;38515;53.160;6.990;2024-02-14T02:38:17;1727.10;;;999.90;;
52620;SDS011;38515;53.160;6.990;2024-02-14T02:40:44;1763.95;;;999.90;;
52620;SDS011;38515;53.160;6.990;2024-02-14T02:43:10;1180.93;;;999.90;;
52620;SDS011;38515;53.160;6.990;2024-02-14T02:45:36;1140.25;;;999.90;;
52620;SDS011;38515;53.160;6.990;2024-02-14T02:48:03;1690.05;;;999.90;;
52620;SDS011;38515;53.160;6.990;2024-02-14T02:50:28;1673.72;;;999.90;;
52620;SDS011;38515;53.160;6.990;2024-02-14T02:52:55;1201.55;;;999.90;;
52620;SDS011;38515;53.160;6.990;2024-02-14T02:55:21;967.20;;;897.00;;
52620;SDS011;38515;53.160;6.990;2024-02-14T02:57:47;1580.40;;;999.90;;
52620;SDS011;38515;53.160;6.990;2024-02-14T03:00:13;1644.00;;;999.90;;
52620;SDS011;38515;53.160;6.990;2024-02-14T03:02:41;1630.05;;;999.90;;
52620;SDS011;38515;53.160;6.990;2024-02-14T03:05:09;1070.25;;;985.63;;
52620;SDS011;38515;53.160;6.990;2024-02-14T03:07:42;905.15;;;841.92;;
52620;SDS011;38515;53.160;6.990;2024-02-14T03:10:13;947.53;;;876.50;;
52620;SDS011;38515;53.160;6.990;2024-02-14T03:12:42;1413.63;;;999.90;;
52620;SDS011;38515;53.160;6.990;2024-02-14T03:15:14;949.83;;;881.08;;
52620;SDS011;38515;53.160;6.990;2024-02-14T03:17:40;930.47;;;863.75;;
52620;SDS011;38515;53.160;6.990;2024-02-14T03:20:07;968.47;;;897.05;;
52620;SDS011;38515;53.160;6.990;2024-02-14T03:22:40;848.42;;;789.25;;
52620;SDS011;38515;53.160;6.990;2024-02-14T03:25:19;1454.82;;;999.90;;
52620;SDS011;38515;53.160;6.990;2024-02-14T03:27:48;1485.72;;;999.90;;
52620;SDS011;38515;53.160;6.990;2024-02-14T03:30:18;962.78;;;890.55;;
52620;SDS011;38515;53.160;6.990;2024-02-14T03:32:49;1037.38;;;955.80;;
52620;SDS011;38515;53.160;6.990;2024-02-14T03:35:15;859.35;;;800.28;;
52620;SDS011;38515;53.160;6.990;2024-02-14T03:37:43;1511.32;;;999.90;;
52620;SDS011;38515;53.160;6.990;2024-02-14T03:40:12;1446.90;;;999.90;;
52620;SDS011;38515;53.160;6.990;2024-02-14T03:42:38;1367.88;;;999.90;;
52620;SDS011;38515;53.160;6.990;2024-02-14T03:45:07;1109.88;;;999.90;;
52620;SDS011;38515;53.160;6.990;2024-02-14T03:47:33;1332.40;;;999.90;;
52620;SDS011;38515;53.160;6.990;2024-02-14T03:49:59;1103.32;;;999.90;;
52620;SDS011;38515;53.160;6.990;2024-02-14T03:52:25;1321.85;;;999.90;;
52620;SDS011;38515;53.160;6.990;2024-02-14T03:54:51;912.10;;;850.05;;
52620;SDS011;38515;53.160;6.990;2024-02-14T03:57:17;1341.20;;;999.90;;
52620;SDS011;38515;53.160;6.990;2024-02-14T03:59:43;1333.05;;;999.90;;
52620;SDS011;38515;53.160;6.990;2024-02-14T04:02:09;1118.38;;;999.90;;
52620;SDS011;38515;53.160;6.990;2024-02-14T04:04:40;1090.05;;;997.75;;
52620;SDS011;38515;53.160;6.990;2024-02-14T04:07:07;1065.07;;;979.17;;
52620;SDS011;38515;53.160;6.990;2024-02-14T04:09:36;1081.85;;;994.53;;
52620;SDS011;38515;53.160;6.990;2024-02-14T04:12:01;1452.05;;;999.90;;
52620;SDS011;38515;53.160;6.990;2024-02-14T04:14:27;1361.88;;;999.90;;
52620;SDS011;38515;53.160;6.990;2024-02-14T04:16:53;1335.22;;;999.90;;
52620;SDS011;38515;53.160;6.990;2024-02-14T04:19:19;1056.90;;;971.90;;
52620;SDS011;38515;53.160;6.990;2024-02-14T04:21:45;1315.38;;;999.90;;
52620;SDS011;38515;53.160;6.990;2024-02-14T04:24:11;1061.63;;;975.10;;
52620;SDS011;38515;53.160;6.990;2024-02-14T04:26:37;1318.32;;;999.90;;
52620;SDS011;38515;53.160;6.990;2024-02-14T04:29:03;1038.45;;;956.95;;
52620;SDS011;38515;53.160;6.990;2024-02-14T04:31:29;1051.50;;;969.38;;
52620;SDS011;38515;53.160;6.990;2024-02-14T04:33:56;988.92;;;915.72;;
52620;SDS011;38515;53.160;6.990;2024-02-14T04:36:22;1408.97;;;999.90;;
52620;SDS011;38515;53.160;6.990;2024-02-14T04:38:48;1322.60;;;999.90;;
52620;SDS011;38515;53.160;6.990;2024-02-14T04:41:15;1050.13;;;966.63;;
52620;SDS011;38515;53.160;6.990;2024-02-14T04:43:41;1045.28;;;964.80;;
52620;SDS011;38515;53.160;6.990;2024-02-14T04:46:06;1021.40;;;945.00;;
52620;SDS011;38515;53.160;6.990;2024-02-14T04:48:34;1036.70;;;957.80;;
52620;SDS011;38515;53.160;6.990;2024-02-14T04:51:00;1062.68;;;979.38;;
52620;SDS011;38515;53.160;6.990;2024-02-14T04:53:26;1058.93;;;974.97;;
52620;SDS011;38515;53.160;6.990;2024-02-14T04:55:52;969.20;;;897.65;;
52620;SDS011;38515;53.160;6.990;2024-02-14T04:58:18;1601.75;;;999.90;;
52620;SDS011;38515;53.160;6.990;2024-02-14T05:00:44;1061.45;;;978.13;;
52620;SDS011;38515;53.160;6.990;2024-02-14T05:03:10;1079.75;;;992.42;;
52620;SDS011;38515;53.160;6.990;2024-02-14T05:05:36;1707.55;;;999.90;;
52620;SDS011;38515;53.160;6.990;2024-02-14T05:08:01;1078.10;;;990.67;;
52620;SDS011;38515;53.160;6.990;2024-02-14T05:10:28;1046.30;;;965.13;;
52620;SDS011;38515;53.160;6.990;2024-02-14T05:12:53;1723.90;;;999.90;;
52620;SDS011;38515;53.160;6.990;2024-02-14T05:15:20;1639.07;;;999.90;;
52620;SDS011;38515;53.160;6.990;2024-02-14T05:17:45;1053.45;;;970.60;;
52620;SDS011;38515;53.160;6.990;2024-02-14T05:20:11;1023.70;;;946.15;;
52620;SDS011;38515;53.160;6.990;2024-02-14T05:22:37;1037.03;;;956.35;;
52620;SDS011;38515;53.160;6.990;2024-02-14T05:25:06;1024.07;;;945.20;;
52620;SDS011;38515;53.160;6.990;2024-02-14T05:27:35;1053.15;;;969.08;;
52620;SDS011;38515;53.160;6.990;2024-02-14T05:30:05;1776.78;;;999.90;;
52620;SDS011;38515;53.160;6.990;2024-02-14T05:32:34;1104.13;;;999.90;;
52620;SDS011;38515;53.160;6.990;2024-02-14T05:35:00;1014.75;;;937.35;;
52620;SDS011;38515;53.160;6.990;2024-02-14T05:37:26;1066.82;;;982.28;;
52620;SDS011;38515;53.160;6.990;2024-02-14T05:39:56;953.97;;;884.47;;
52620;SDS011;38515;53.160;6.990;2024-02-14T05:42:21;1015.83;;;939.30;;
52620;SDS011;38515;53.160;6.990;2024-02-14T05:44:48;1044.05;;;963.25;;
52620;SDS011;38515;53.160;6.990;2024-02-14T05:47:13;1063.53;;;978.92;;
52620;SDS011;38515;53.160;6.990;2024-02-14T05:49:39;1732.75;;;999.90;;
52620;SDS011;38515;53.160;6.990;2024-02-14T05:52:08;1073.68;;;989.55;;
52620;SDS011;38515;53.160;6.990;2024-02-14T05:54:34;1041.60;;;961.33;;
52620;SDS011;38515;53.160;6.990;2024-02-14T05:57:00;1564.05;;;999.90;;
52620;SDS011;38515;53.160;6.990;2024-02-14T05:59:29;1049.47;;;968.38;;
52620;SDS011;38515;53.160;6.990;2024-02-14T06:01:55;1034.30;;;955.40;;
52620;SDS011;38515;53.160;6.990;2024-02-14T06:04:21;1026.60;;;948.60;;
52620;SDS011;38515;53.160;6.990;2024-02-14T06:06:47;944.72;;;876.90;;
52620;SDS011;38515;53.160;6.990;2024-02-14T06:09:12;1073.68;;;988.42;;
52620;SDS011;38515;53.160;6.990;2024-02-14T06:11:39;1434.00;;;999.90;;
52620;SDS011;38515;53.160;6.990;2024-02-14T06:14:07;1024.05;;;947.30;;
52620;SDS011;38515;53.160;6.990;2024-02-14T06:16:34;960.47;;;890.78;;
52620;SDS011;38515;53.160;6.990;2024-02-14T06:19:00;1034.18;;;956.05;;
52620;SDS011;38515;53.160;6.990;2024-02-14T06:21:26;1010.00;;;934.38;;
52620;SDS011;38515;53.160;6.990;2024-02-14T06:23:52;943.85;;;875.65;;
52620;SDS011;38515;53.160;6.990;2024-02-14T06:26:18;1020.67;;;943.08;;
52620;SDS011;38515;53.160;6.990;2024-02-14T06:28:44;927.97;;;862.80;;
52620;SDS011;38515;53.160;6.990;2024-02-14T06:31:10;1002.80;;;927.40;;
52620;SDS011;38515;53.160;6.990;2024-02-14T06:33:36;1021.05;;;943.67;;
52620;SDS011;38515;53.160;6.990;2024-02-14T06:36:02;961.47;;;892.08;;
52620;SDS011;38515;53.160;6.990;2024-02-14T06:38:28;977.95;;;905.63;;
52620;SDS011;38515;53.160;6.990;2024-02-14T06:40:56;997.22;;;923.38;;
52620;SDS011;38515;53.160;6.990;2024-02-14T06:43:21;950.83;;;883.15;;
52620;SDS011;38515;53.160;6.990;2024-02-14T06:45:47;992.42;;;917.80;;
52620;SDS011;38515;53.160;6.990;2024-02-14T06:48:13;980.10;;;907.90;;
52620;SDS011;38515;53.160;6.990;2024-02-14T06:50:39;989.95;;;916.28;;
52620;SDS011;38515;53.160;6.990;2024-02-14T06:53:04;1013.47;;;938.00;;
52620;SDS011;38515;53.160;6.990;2024-02-14T06:55:31;974.75;;;903.25;;
52620;SDS011;38515;53.160;6.990;2024-02-14T06:57:57;972.05;;;901.25;;
52620;SDS011;38515;53.160;6.990;2024-02-14T07:00:23;985.20;;;913.05;;
52620;SDS011;38515;53.160;6.990;2024-02-14T07:02:49;993.53;;;920.28;;
52620;SDS011;38515;53.160;6.990;2024-02-14T07:05:14;1004.20;;;928.90;;
52620;SDS011;38515;53.160;6.990;2024-02-14T07:07:40;1020.15;;;942.75;;
52620;SDS011;38515;53.160;6.990;2024-02-14T07:10:06;1017.33;;;939.92;;
52620;SDS011;38515;53.160;6.990;2024-02-14T07:12:33;1023.78;;;945.42;;
52620;SDS011;38515;53.160;6.990;2024-02-14T07:14:58;1018.47;;;941.75;;
52620;SDS011;38515;53.160;6.990;2024-02-14T07:17:24;1051.32;;;969.33;;
52620;SDS011;38515;53.160;6.990;2024-02-14T07:19:50;1048.90;;;965.63;;
52620;SDS011;38515;53.160;6.990;2024-02-14T07:22:15;1026.97;;;947.50;;
52620;SDS011;38515;53.160;6.990;2024-02-14T07:24:44;1021.50;;;941.55;;
52620;SDS011;38515;53.160;6.990;2024-02-14T07:27:11;1021.13;;;943.05;;
52620;SDS011;38515;53.160;6.990;2024-02-14T07:29:40;1017.78;;;939.83;;
52620;SDS011;38515;53.160;6.990;2024-02-14T07:32:06;1009.83;;;933.40;;
52620;SDS011;38515;53.160;6.990;2024-02-14T07:34:32;1023.22;;;945.00;;
52620;SDS011;38515;53.160;6.990;2024-02-14T07:36:58;972.13;;;901.67;;
52620;SDS011;38515;53.160;6.990;2024-02-14T07:39:24;990.08;;;916.60;;
52620;SDS011;38515;53.160;6.990;2024-02-14T07:41:50;997.20;;;923.05;;
52620;SDS011;38515;53.160;6.990;2024-02-14T07:44:16;989.08;;;915.90;;
52620;SDS011;38515;53.160;6.990;2024-02-14T07:46:42;995.85;;;921.67;;
52620;SDS011;38515;53.160;6.990;2024-02-14T07:49:08;950.58;;;882.03;;
52620;SDS011;38515;53.160;6.990;2024-02-14T07:51:35;982.00;;;910.20;;
52620;SDS011;38515;53.160;6.990;2024-02-14T07:54:03;951.55;;;883.38;;
52620;SDS011;38515;53.160;6.990;2024-02-14T07:56:29;960.78;;;892.47;;
52620;SDS011;38515;53.160;6.990;2024-02-14T07:58:56;941.13;;;875.30;;
52620;SDS011;38515;53.160;6.990;2024-02-14T08:01:22;964.03;;;895.63;;
52620;SDS011;38515;53.160;6.990;2024-02-14T08:03:47;944.75;;;879.42;;
52620;SDS011;38515;53.160;6.990;2024-02-14T08:06:13;984.00;;;913.67;;
52620;SDS011;38515;53.160;6.990;2024-02-14T08:08:39;979.78;;;911.08;;
52620;SDS011;38515;53.160;6.990;2024-02-14T08:11:05;959.15;;;891.17;;
52620;SDS011;38515;53.160;6.990;2024-02-14T08:13:31;960.45;;;892.80;;
52620;SDS011;38515;53.160;6.990;2024-02-14T08:15:57;916.85;;;853.78;;
52620;SDS011;38515;53.160;6.990;2024-02-14T08:18:25;913.63;;;850.17;;
52620;SDS011;38515;53.160;6.990;2024-02-14T08:20:52;971.55;;;901.72;;
52620;SDS011;38515;53.160;6.990;2024-02-14T08:23:18;929.15;;;863.10;;
52620;SDS011;38515;53.160;6.990;2024-02-14T08:25:45;904.67;;;839.70;;
52620;SDS011;38515;53.160;6.990;2024-02-14T08:28:11;905.88;;;839.30;;
52620;SDS011;38515;53.160;6.990;2024-02-14T08:30:37;944.03;;;873.40;;
52620;SDS011;38515;53.160;6.990;2024-02-14T08:33:03;917.00;;;849.47;;
52620;SDS011;38515;53.160;6.990;2024-02-14T08:35:28;926.92;;;857.50;;
52620;SDS011;38515;53.160;6.990;2024-02-14T08:37:54;903.58;;;835.85;;
52620;SDS011;38515;53.160;6.990;2024-02-14T08:40:20;922.40;;;854.38;;
52620;SDS011;38515;53.160;6.990;2024-02-14T08:42:46;905.75;;;839.42;;
52620;SDS011;38515;53.160;6.990;2024-02-14T08:45:12;924.00;;;855.10;;
52620;SDS011;38515;53.160;6.990;2024-02-14T08:47:38;871.22;;;808.70;;
52620;SDS011;38515;53.160;6.990;2024-02-14T08:50:04;907.03;;;840.33;;
52620;SDS011;38515;53.160;6.990;2024-02-14T08:52:30;907.47;;;839.97;;
52620;SDS011;38515;53.160;6.990;2024-02-14T08:54:56;859.22;;;796.97;;
52620;SDS011;38515;53.160;6.990;2024-02-14T08:57:21;872.35;;;808.38;;
52620;SDS011;38515;53.160;6.990;2024-02-14T08:59:48;870.13;;;806.80;;
52620;SDS011;38515;53.160;6.990;2024-02-14T09:02:14;824.50;;;766.53;;
52620;SDS011;38515;53.160;6.990;2024-02-14T09:04:42;789.95;;;735.55;;
52620;SDS011;38515;53.160;6.990;2024-02-14T09:07:08;809.35;;;752.67;;
52620;SDS011;38515;53.160;6.990;2024-02-14T09:09:34;807.20;;;751.55;;
52620;SDS011;38515;53.160;6.990;2024-02-14T09:12:02;829.20;;;772.40;;
52620;SDS011;38515;53.160;6.990;2024-02-14T09:14:28;785.00;;;731.92;;
52620;SDS011;38515;53.160;6.990;2024-02-14T09:16:55;747.97;;;698.58;;
52620;SDS011;38515;53.160;6.990;2024-02-14T09:19:21;833.97;;;777.13;;
52620;SDS011;38515;53.160;6.990;2024-02-14T09:21:47;825.95;;;769.78;;
52620;SDS011;38515;53.160;6.990;2024-02-14T09:24:12;834.58;;;777.80;;
52620;SDS011;38515;53.160;6.990;2024-02-14T09:26:38;811.67;;;756.22;;
52620;SDS011;38515;53.160;6.990;2024-02-14T09:29:04;790.15;;;737.65;;
52620;SDS011;38515;53.160;6.990;2024-02-14T09:31:30;839.22;;;783.00;;
52620;SDS011;38515;53.160;6.990;2024-02-14T09:33:56;840.90;;;784.17;;
52620;SDS011;38515;53.160;6.990;2024-02-14T09:36:23;880.40;;;821.17;;
52620;SDS011;38515;53.160;6.990;2024-02-14T09:38:52;902.35;;;841.22;;
52620;SDS011;38515;53.160;6.990;2024-02-14T09:41:25;971.65;;;902.95;;
52620;SDS011;38515;53.160;6.990;2024-02-14T09:43:56;996.13;;;924.25;;
52620;SDS011;38515;53.160;6.990;2024-02-14T09:46:23;1011.30;;;937.53;;
52620;SDS011;38515;53.160;6.990;2024-02-14T09:48:52;1126.10;;;999.90;;
52620;SDS011;38515;53.160;6.990;2024-02-14T09:51:19;1057.40;;;977.92;;
52620;SDS011;38515;53.160;6.990;2024-02-14T09:53:46;1000.28;;;926.20;;
52620;SDS011;38515;53.160;6.990;2024-02-14T09:56:13;1063.30;;;981.60;;
52620;SDS011;38515;53.160;6.990;2024-02-14T09:58:43;1032.05;;;955.55;;
52620;SDS011;38515;53.160;6.990;2024-02-14T10:01:10;1047.13;;;967.80;;
52620;SDS011;38515;53.160;6.990;2024-02-14T10:03:36;942.55;;;874.97;;
52620;SDS011;38515;53.160;6.990;2024-02-14T10:06:02;1092.03;;;999.90;;
52620;SDS011;38515;53.160;6.990;2024-02-14T10:08:29;1066.55;;;983.63;;
52620;SDS011;38515;53.160;6.990;2024-02-14T10:10:56;1088.30;;;997.47;;
52620;SDS011;38515;53.160;6.990;2024-02-14T10:13:26;1154.63;;;999.90;;
52620;SDS011;38515;53.160;6.990;2024-02-14T10:15:53;1094.43;;;999.90;;
52620;SDS011;38515;53.160;6.990;2024-02-14T10:18:22;992.75;;;919.60;;
52620;SDS011;38515;53.160;6.990;2024-02-14T10:20:55;1079.30;;;991.38;;
52620;SDS011;38515;53.160;6.990;2024-02-14T10:23:21;1135.20;;;999.90;;
52620;SDS011;38515;53.160;6.990;2024-02-14T10:25:48;1117.65;;;999.90;;
52620;SDS011;38515;53.160;6.990;2024-02-14T10:28:21;1098.60;;;998.50;;
52620;SDS011;38515;53.160;6.990;2024-02-14T10:30:47;1126.07;;;999.90;;
52620;SDS011;38515;53.160;6.990;2024-02-14T10:33:16;1112.13;;;999.90;;
52620;SDS011;38515;53.160;6.990;2024-02-14T10:35:44;1130.20;;;999.90;;
52620;SDS011;38515;53.160;6.990;2024-02-14T10:38:11;1164.63;;;999.90;;
52620;SDS011;38515;53.160;6.990;2024-02-14T10:40:39;1145.85;;;999.90;;
52620;SDS011;38515;53.160;6.990;2024-02-14T10:43:08;1128.78;;;999.90;;
52620;SDS011;38515;53.160;6.990;2024-02-14T10:45:37;1161.70;;;999.90;;
52620;SDS011;38515;53.160;6.990;2024-02-14T10:48:09;1129.30;;;999.90;;
52620;SDS011;38515;53.160;6.990;2024-02-14T10:50:36;1128.13;;;999.90;;
52620;SDS011;38515;53.160;6.990;2024-02-14T10:53:06;1107.35;;;999.90;;
52620;SDS011;38515;53.160;6.990;2024-02-14T10:55:38;1093.45;;;998.30;;
52620;SDS011;38515;53.160;6.990;2024-02-14T10:58:07;1094.03;;;999.85;;
52620;SDS011;38515;53.160;6.990;2024-02-14T11:00:35;1081.32;;;992.42;;
52620;SDS011;38515;53.160;6.990;2024-02-14T11:03:02;1102.70;;;999.90;;
52620;SDS011;38515;53.160;6.990;2024-02-14T11:05:29;1141.30;;;999.90;;
52620;SDS011;38515;53.160;6.990;2024-02-14T11:07:55;1095.70;;;999.58;;
52620;SDS011;38515;53.160;6.990;2024-02-14T11:10:22;1147.72;;;999.90;;
52620;SDS011;38515;53.160;6.990;2024-02-14T11:12:48;1130.88;;;999.90;;
52620;SDS011;38515;53.160;6.990;2024-02-14T11:15:22;1081.28;;;993.75;;
52620;SDS011;38515;53.160;6.990;2024-02-14T11:18:03;1071.90;;;984.42;;
52620;SDS011;38515;53.160;6.990;2024-02-14T11:20:34;1080.90;;;991.80;;
52620;SDS011;38515;53.160;6.990;2024-02-14T11:23:04;987.70;;;915.38;;
52620;SDS011;38515;53.160;6.990;2024-02-14T11:25:34;1085.13;;;997.55;;
52620;SDS011;38515;53.160;6.990;2024-02-14T11:28:01;1111.70;;;999.90;;
52620;SDS011;38515;53.160;6.990;2024-02-14T11:30:48;1112.78;;;999.90;;
52620;SDS011;38515;53.160;6.990;2024-02-14T11:33:21;1103.88;;;999.90;;
52620;SDS011;38515;53.160;6.990;2024-02-14T11:35:52;1129.13;;;999.90;;
52620;SDS011;38515;53.160;6.990;2024-02-14T11:38:19;1180.63;;;999.90;;
52620;SDS011;38515;53.160;6.990;2024-02-14T11:40:46;1119.28;;;999.90;;
52620;SDS011;38515;53.160;6.990;2024-02-14T11:43:18;1108.78;;;999.90;;
52620;SDS011;38515;53.160;6.990;2024-02-14T11:45:45;1100.80;;;999.90;;
52620;SDS011;38515;53.160;6.990;2024-02-14T11:48:14;1067.10;;;983.90;;
52620;SDS011;38515;53.160;6.990;2024-02-14T11:50:51;1145.93;;;999.90;;
52620;SDS011;38515;53.160;6.990;2024-02-14T11:53:18;1067.18;;;983.67;;
52620;SDS011;38515;53.160;6.990;2024-02-14T11:55:45;1137.78;;;999.90;;
52620;SDS011;38515;53.160;6.990;2024-02-14T11:58:15;1187.70;;;999.90;;
52620;SDS011;38515;53.160;6.990;2024-02-14T12:00:45;1172.55;;;999.90;;
52620;SDS011;38515;53.160;6.990;2024-02-14T12:03:17;1183.78;;;999.90;;
52620;SDS011;38515;53.160;6.990;2024-02-14T12:05:46;1180.38;;;999.90;;
52620;SDS011;38515;53.160;6.990;2024-02-14T12:08:13;1156.75;;;999.90;;
52620;SDS011;38515;53.160;6.990;2024-02-14T12:10:41;1168.95;;;999.90;;
52620;SDS011;38515;53.160;6.990;2024-02-14T12:13:08;1179.65;;;999.90;;
52620;SDS011;38515;53.160;6.990;2024-02-14T12:15:46;1168.30;;;999.90;;
52620;SDS011;38515;53.160;6.990;2024-02-14T12:18:16;1168.15;;;999.90;;
52620;SDS011;38515;53.160;6.990;2024-02-14T12:20:43;1172.95;;;999.90;;
52620;SDS011;38515;53.160;6.990;2024-02-14T12:23:16;1196.22;;;999.90;;
52620;SDS011;38515;53.160;6.990;2024-02-14T12:25:44;1233.88;;;999.90;;
52620;SDS011;38515;53.160;6.990;2024-02-14T12:28:17;1202.10;;;999.90;;
52620;SDS011;38515;53.160;6.990;2024-02-14T12:33:21;1195.13;;;999.90;;
52620;SDS011;38515;53.160;6.990;2024-02-14T12:35:47;1173.80;;;999.90;;
52620;SDS011;38515;53.160;6.990;2024-02-14T12:38:18;1191.70;;;999.90;;
52620;SDS011;38515;53.160;6.990;2024-02-14T12:40:44;1173.00;;;999.90;;
52620;SDS011;38515;53.160;6.990;2024-02-14T12:43:11;1207.95;;;999.90;;
52620;SDS011;38515;53.160;6.990;2024-02-14T12:45:39;1167.78;;;999.90;;
52620;SDS011;38515;53.160;6.990;2024-02-14T12:48:06;1186.35;;;999.90;;
52620;SDS011;38515;53.160;6.990;2024-02-14T12:50:33;1159.32;;;999.90;;
52620;SDS011;38515;53.160;6.990;2024-02-14T12:53:00;1148.45;;;999.90;;
52620;SDS011;38515;53.160;6.990;2024-02-14T12:55:27;1155.43;;;999.90;;
52620;SDS011;38515;53.160;6.990;2024-02-14T12:57:56;1169.97;;;999.90;;
52620;SDS011;38515;53.160;6.990;2024-02-14T13:00:23;1155.25;;;999.90;;
52620;SDS011;38515;53.160;6.990;2024-02-14T13:02:49;1166.35;;;999.90;;
52620;SDS011;38515;53.160;6.990;2024-02-14T13:05:18;1180.05;;;999.90;;
52620;SDS011;38515;53.160;6.990;2024-02-14T13:07:47;1179.95;;;999.90;;
52620;SDS011;38515;53.160;6.990;2024-02-14T13:10:13;1148.07;;;999.90;;
52620;SDS011;38515;53.160;6.990;2024-02-14T13:12:39;1147.43;;;999.90;;
52620;SDS011;38515;53.160;6.990;2024-02-14T13:15:08;1190.55;;;999.90;;
52620;SDS011;38515;53.160;6.990;2024-02-14T13:17:34;1181.43;;;999.90;;
52620;SDS011;38515;53.160;6.990;2024-02-14T13:19:59;1173.85;;;999.90;;
52620;SDS011;38515;53.160;6.990;2024-02-14T13:22:26;1167.55;;;999.90;;
52620;SDS011;38515;53.160;6.990;2024-02-14T13:24:52;1178.53;;;999.90;;
52620;SDS011;38515;53.160;6.990;2024-02-14T13:27:18;1173.38;;;999.90;;
52620;SDS011;38515;53.160;6.990;2024-02-14T13:29:48;1157.75;;;999.90;;
52620;SDS011;38515;53.160;6.990;2024-02-14T13:32:15;1150.32;;;999.90;;
52620;SDS011;38515;53.160;6.990;2024-02-14T13:34:40;1190.20;;;999.90;;
52620;SDS011;38515;53.160;6.990;2024-02-14T13:37:06;1202.90;;;999.90;;
52620;SDS011;38515;53.160;6.990;2024-02-14T13:39:32;1176.05;;;999.90;;
52620;SDS011;38515;53.160;6.990;2024-02-14T13:41:58;1189.07;;;999.90;;
52620;SDS011;38515;53.160;6.990;2024-02-14T13:44:25;1130.05;;;999.90;;
52620;SDS011;38515;53.160;6.990;2024-02-14T13:46:50;1179.60;;;999.90;;
52620;SDS011;38515;53.160;6.990;2024-02-14T13:49:18;1172.10;;;999.90;;
52620;SDS011;38515;53.160;6.990;2024-02-14T13:51:50;1202.40;;;999.90;;